sensor_id;sensor_type;location;lat;lon;timestamp;P1;durP1;ratioP1;P2;durP2;ratioP2
2860;SDS011;1438;50.922;6.704;2022-10-31T00:02:19;12.13;;;5.80;;
2860;SDS011;1438;50.922;6.704;2022-10-31T00:04:45;11.40;;;5.30;;
2860;SDS011;1438;50.922;6.704;2022-10-31T00:07:11;10.27;;;5.50;;
2860;SDS011;1438;50.922;6.704;2022-10-31T00:09:36;12.33;;;6.47;;
2860;SDS011;1438;50.922;6.704;2022-10-31T00:12:02;13.13;;;6.07;;
2860;SDS011;1438;50.922;6.704;2022-10-31T00:14:28;8.70;;;5.00;;
2860;SDS011;1438;50.922;6.704;2022-10-31T00:16:53;10.87;;;5.67;;
2860;SDS011;1438;50.922;6.704;2022-10-31T00:19:19;9.73;;;5.23;;
2860;SDS011;1438;50.922;6.704;2022-10-31T00:21:44;6.90;;;5.30;;
2860;SDS011;1438;50.922;6.704;2022-10-31T00:24:10;13.87;;;6.37;;
2860;SDS011;1438;50.922;6.704;2022-10-31T00:26:36;15.90;;;6.70;;
2860;SDS011;1438;50.922;6.704;2022-10-31T00:29:02;12.40;;;5.73;;
2860;SDS011;1438;50.922;6.704;2022-10-31T00:31:28;10.53;;;5.90;;
2860;SDS011;1438;50.922;6.704;2022-10-31T00:33:54;6.63;;;5.13;;
2860;SDS011;1438;50.922;6.704;2022-10-31T00:36:20;12.90;;;6.00;;
2860;SDS011;1438;50.922;6.704;2022-10-31T00:38:46;8.30;;;5.73;;
2860;SDS011;1438;50.922;6.704;2022-10-31T00:41:13;16.33;;;6.57;;
2860;SDS011;1438;50.922;6.704;2022-10-31T00:43:41;10.67;;;5.03;;
2860;SDS011;1438;50.922;6.704;2022-10-31T00:46:07;8.33;;;5.03;;
2860;SDS011;1438;50.922;6.704;2022-10-31T00:48:32;11.63;;;6.90;;
2860;SDS011;1438;50.922;6.704;2022-10-31T00:50:58;9.97;;;5.90;;
2860;SDS011;1438;50.922;6.704;2022-10-31T00:53:24;10.03;;;5.57;;
2860;SDS011;1438;50.922;6.704;2022-10-31T00:55:50;14.73;;;6.10;;
2860;SDS011;1438;50.922;6.704;2022-10-31T00:58:15;9.27;;;5.30;;
2860;SDS011;1438;50.922;6.704;2022-10-31T01:00:41;6.87;;;5.43;;
2860;SDS011;1438;50.922;6.704;2022-10-31T01:03:07;11.67;;;6.00;;
2860;SDS011;1438;50.922;6.704;2022-10-31T01:05:33;19.97;;;6.33;;
2860;SDS011;1438;50.922;6.704;2022-10-31T01:07:58;12.37;;;5.93;;
2860;SDS011;1438;50.922;6.704;2022-10-31T01:10:24;8.23;;;5.60;;
2860;SDS011;1438;50.922;6.704;2022-10-31T01:12:50;9.43;;;5.83;;
2860;SDS011;1438;50.922;6.704;2022-10-31T01:15:17;15.10;;;5.83;;
2860;SDS011;1438;50.922;6.704;2022-10-31T01:17:44;9.53;;;5.97;;
2860;SDS011;1438;50.922;6.704;2022-10-31T01:20:11;12.50;;;6.47;;
2860;SDS011;1438;50.922;6.704;2022-10-31T01:22:38;12.47;;;6.03;;
2860;SDS011;1438;50.922;6.704;2022-10-31T01:25:03;10.60;;;5.30;;
2860;SDS011;1438;50.922;6.704;2022-10-31T01:27:30;12.00;;;6.10;;
2860;SDS011;1438;50.922;6.704;2022-10-31T01:29:57;9.07;;;6.30;;
2860;SDS011;1438;50.922;6.704;2022-10-31T01:32:22;12.80;;;6.40;;
2860;SDS011;1438;50.922;6.704;2022-10-31T01:34:48;8.90;;;5.10;;
2860;SDS011;1438;50.922;6.704;2022-10-31T01:37:14;11.50;;;6.03;;
2860;SDS011;1438;50.922;6.704;2022-10-31T01:39:39;9.77;;;5.90;;
2860;SDS011;1438;50.922;6.704;2022-10-31T01:42:05;10.97;;;5.70;;
2860;SDS011;1438;50.922;6.704;2022-10-31T01:46:57;13.17;;;6.73;;
2860;SDS011;1438;50.922;6.704;2022-10-31T01:49:36;7.33;;;5.20;;
2860;SDS011;1438;50.922;6.704;2022-10-31T01:52:14;8.97;;;5.60;;
2860;SDS011;1438;50.922;6.704;2022-10-31T01:55:07;10.47;;;6.03;;
2860;SDS011;1438;50.922;6.704;2022-10-31T01:57:38;11.93;;;6.27;;
2860;SDS011;1438;50.922;6.704;2022-10-31T02:00:08;9.80;;;6.70;;
2860;SDS011;1438;50.922;6.704;2022-10-31T02:02:34;11.73;;;6.70;;
2860;SDS011;1438;50.922;6.704;2022-10-31T02:05:02;11.23;;;6.33;;
2860;SDS011;1438;50.922;6.704;2022-10-31T02:07:51;6.10;;;5.10;;
2860;SDS011;1438;50.922;6.704;2022-10-31T02:10:38;9.53;;;6.07;;
2860;SDS011;1438;50.922;6.704;2022-10-31T02:13:07;13.50;;;5.60;;
2860;SDS011;1438;50.922;6.704;2022-10-31T02:15:33;7.23;;;5.30;;
2860;SDS011;1438;50.922;6.704;2022-10-31T02:18:01;8.23;;;5.97;;
2860;SDS011;1438;50.922;6.704;2022-10-31T02:20:42;9.07;;;6.13;;
2860;SDS011;1438;50.922;6.704;2022-10-31T02:37:37;11.10;;;6.10;;
2860;SDS011;1438;50.922;6.704;2022-10-31T02:40:23;7.57;;;5.70;;
2860;SDS011;1438;50.922;6.704;2022-10-31T02:43:02;11.83;;;5.30;;
2860;SDS011;1438;50.922;6.704;2022-10-31T02:46:13;10.43;;;5.73;;
2860;SDS011;1438;50.922;6.704;2022-10-31T02:48:45;15.87;;;5.67;;
2860;SDS011;1438;50.922;6.704;2022-10-31T02:51:13;10.10;;;5.63;;
2860;SDS011;1438;50.922;6.704;2022-10-31T02:53:40;7.10;;;5.83;;
2860;SDS011;1438;50.922;6.704;2022-10-31T02:58:38;9.83;;;5.57;;
2860;SDS011;1438;50.922;6.704;2022-10-31T03:14:41;9.63;;;6.00;;
2860;SDS011;1438;50.922;6.704;2022-10-31T03:17:20;11.87;;;5.70;;
2860;SDS011;1438;50.922;6.704;2022-10-31T03:20:10;10.87;;;6.10;;
2860;SDS011;1438;50.922;6.704;2022-10-31T03:22:36;11.33;;;5.70;;
2860;SDS011;1438;50.922;6.704;2022-10-31T03:25:05;12.97;;;5.93;;
2860;SDS011;1438;50.922;6.704;2022-10-31T03:27:32;9.07;;;6.50;;
2860;SDS011;1438;50.922;6.704;2022-10-31T03:30:02;8.53;;;5.50;;
2860;SDS011;1438;50.922;6.704;2022-10-31T03:35:29;8.43;;;5.40;;
2860;SDS011;1438;50.922;6.704;2022-10-31T03:37:57;10.40;;;6.57;;
2860;SDS011;1438;50.922;6.704;2022-10-31T03:40:25;9.57;;;5.80;;
2860;SDS011;1438;50.922;6.704;2022-10-31T03:42:54;10.83;;;7.10;;
2860;SDS011;1438;50.922;6.704;2022-10-31T03:45:29;9.70;;;6.27;;
2860;SDS011;1438;50.922;6.704;2022-10-31T03:47:56;14.87;;;6.70;;
2860;SDS011;1438;50.922;6.704;2022-10-31T03:50:24;11.33;;;5.90;;
2860;SDS011;1438;50.922;6.704;2022-10-31T03:55:47;10.77;;;6.10;;
2860;SDS011;1438;50.922;6.704;2022-10-31T03:58:34;12.70;;;8.40;;
2860;SDS011;1438;50.922;6.704;2022-10-31T04:01:04;16.83;;;6.73;;
2860;SDS011;1438;50.922;6.704;2022-10-31T04:03:34;8.47;;;6.83;;
2860;SDS011;1438;50.922;6.704;2022-10-31T04:06:04;11.33;;;7.40;;
2860;SDS011;1438;50.922;6.704;2022-10-31T04:08:33;16.07;;;7.00;;
2860;SDS011;1438;50.922;6.704;2022-10-31T04:11:05;11.00;;;7.80;;
2860;SDS011;1438;50.922;6.704;2022-10-31T04:13:34;11.57;;;7.80;;
2860;SDS011;1438;50.922;6.704;2022-10-31T04:16:03;15.03;;;7.83;;
2860;SDS011;1438;50.922;6.704;2022-10-31T04:18:28;15.93;;;8.10;;
2860;SDS011;1438;50.922;6.704;2022-10-31T04:21:01;11.30;;;8.87;;
2860;SDS011;1438;50.922;6.704;2022-10-31T04:23:28;10.43;;;8.20;;
2860;SDS011;1438;50.922;6.704;2022-10-31T04:25:55;13.13;;;8.70;;
2860;SDS011;1438;50.922;6.704;2022-10-31T04:28:20;11.53;;;7.67;;
2860;SDS011;1438;50.922;6.704;2022-10-31T04:30:46;10.50;;;7.50;;
2860;SDS011;1438;50.922;6.704;2022-10-31T04:33:12;18.33;;;7.40;;
2860;SDS011;1438;50.922;6.704;2022-10-31T04:35:37;15.63;;;8.00;;
2860;SDS011;1438;50.922;6.704;2022-10-31T04:38:03;11.37;;;7.57;;
2860;SDS011;1438;50.922;6.704;2022-10-31T04:40:29;11.13;;;7.30;;
2860;SDS011;1438;50.922;6.704;2022-10-31T04:42:54;11.17;;;7.07;;
2860;SDS011;1438;50.922;6.704;2022-10-31T04:45:20;9.97;;;6.80;;
2860;SDS011;1438;50.922;6.704;2022-10-31T04:47:45;13.47;;;8.20;;
2860;SDS011;1438;50.922;6.704;2022-10-31T04:50:11;15.60;;;8.20;;
2860;SDS011;1438;50.922;6.704;2022-10-31T04:52:40;13.27;;;7.50;;
2860;SDS011;1438;50.922;6.704;2022-10-31T04:55:07;17.87;;;8.70;;
2860;SDS011;1438;50.922;6.704;2022-10-31T04:57:44;13.93;;;9.00;;
2860;SDS011;1438;50.922;6.704;2022-10-31T05:00:14;13.90;;;8.73;;
2860;SDS011;1438;50.922;6.704;2022-10-31T05:02:45;15.23;;;7.77;;
2860;SDS011;1438;50.922;6.704;2022-10-31T05:05:17;17.27;;;8.33;;
2860;SDS011;1438;50.922;6.704;2022-10-31T05:07:45;11.03;;;7.10;;
2860;SDS011;1438;50.922;6.704;2022-10-31T05:10:13;11.93;;;7.40;;
2860;SDS011;1438;50.922;6.704;2022-10-31T05:12:57;11.63;;;6.90;;
2860;SDS011;1438;50.922;6.704;2022-10-31T05:15:25;11.50;;;7.20;;
2860;SDS011;1438;50.922;6.704;2022-10-31T05:17:51;13.63;;;7.90;;
2860;SDS011;1438;50.922;6.704;2022-10-31T05:20:18;14.67;;;7.57;;
2860;SDS011;1438;50.922;6.704;2022-10-31T05:22:47;13.53;;;8.80;;
2860;SDS011;1438;50.922;6.704;2022-10-31T05:25:14;12.33;;;7.33;;
2860;SDS011;1438;50.922;6.704;2022-10-31T05:27:41;13.13;;;7.60;;
2860;SDS011;1438;50.922;6.704;2022-10-31T05:30:09;12.73;;;7.00;;
2860;SDS011;1438;50.922;6.704;2022-10-31T05:32:39;16.70;;;7.90;;
2860;SDS011;1438;50.922;6.704;2022-10-31T05:35:07;13.17;;;8.50;;
2860;SDS011;1438;50.922;6.704;2022-10-31T05:37:36;13.10;;;7.20;;
2860;SDS011;1438;50.922;6.704;2022-10-31T05:40:03;11.90;;;7.90;;
2860;SDS011;1438;50.922;6.704;2022-10-31T05:42:29;12.83;;;7.67;;
2860;SDS011;1438;50.922;6.704;2022-10-31T05:44:55;11.70;;;7.90;;
2860;SDS011;1438;50.922;6.704;2022-10-31T05:47:21;13.73;;;8.17;;
2860;SDS011;1438;50.922;6.704;2022-10-31T05:49:46;14.30;;;7.97;;
2860;SDS011;1438;50.922;6.704;2022-10-31T05:52:12;15.93;;;8.27;;
2860;SDS011;1438;50.922;6.704;2022-10-31T05:54:37;12.30;;;7.20;;
2860;SDS011;1438;50.922;6.704;2022-10-31T05:57:03;12.77;;;6.83;;
2860;SDS011;1438;50.922;6.704;2022-10-31T05:59:28;11.80;;;6.83;;
2860;SDS011;1438;50.922;6.704;2022-10-31T06:01:54;10.50;;;7.60;;
2860;SDS011;1438;50.922;6.704;2022-10-31T06:04:20;11.63;;;7.13;;
2860;SDS011;1438;50.922;6.704;2022-10-31T06:06:45;9.73;;;6.07;;
2860;SDS011;1438;50.922;6.704;2022-10-31T06:09:11;12.87;;;6.90;;
2860;SDS011;1438;50.922;6.704;2022-10-31T06:11:37;11.23;;;6.90;;
2860;SDS011;1438;50.922;6.704;2022-10-31T06:14:03;19.47;;;7.13;;
2860;SDS011;1438;50.922;6.704;2022-10-31T06:16:29;14.47;;;7.00;;
2860;SDS011;1438;50.922;6.704;2022-10-31T06:18:54;14.90;;;8.07;;
2860;SDS011;1438;50.922;6.704;2022-10-31T06:21:20;20.67;;;7.03;;
2860;SDS011;1438;50.922;6.704;2022-10-31T06:23:46;18.57;;;8.67;;
2860;SDS011;1438;50.922;6.704;2022-10-31T06:26:11;12.43;;;7.77;;
2860;SDS011;1438;50.922;6.704;2022-10-31T06:28:37;14.20;;;7.23;;
2860;SDS011;1438;50.922;6.704;2022-10-31T06:31:03;11.13;;;7.37;;
2860;SDS011;1438;50.922;6.704;2022-10-31T06:33:28;15.33;;;8.73;;
2860;SDS011;1438;50.922;6.704;2022-10-31T06:35:54;17.10;;;7.50;;
2860;SDS011;1438;50.922;6.704;2022-10-31T06:38:19;11.50;;;7.13;;
2860;SDS011;1438;50.922;6.704;2022-10-31T06:40:45;17.27;;;10.20;;
2860;SDS011;1438;50.922;6.704;2022-10-31T06:43:11;18.43;;;8.80;;
2860;SDS011;1438;50.922;6.704;2022-10-31T06:45:37;14.20;;;8.80;;
2860;SDS011;1438;50.922;6.704;2022-10-31T06:48:02;15.03;;;8.40;;
2860;SDS011;1438;50.922;6.704;2022-10-31T06:50:28;15.67;;;8.87;;
2860;SDS011;1438;50.922;6.704;2022-10-31T06:52:55;15.20;;;8.00;;
2860;SDS011;1438;50.922;6.704;2022-10-31T06:55:22;13.50;;;9.10;;
2860;SDS011;1438;50.922;6.704;2022-10-31T06:57:52;19.70;;;8.90;;
2860;SDS011;1438;50.922;6.704;2022-10-31T07:00:22;16.50;;;9.33;;
2860;SDS011;1438;50.922;6.704;2022-10-31T07:03:00;18.23;;;8.50;;
2860;SDS011;1438;50.922;6.704;2022-10-31T07:05:26;13.67;;;8.50;;
2860;SDS011;1438;50.922;6.704;2022-10-31T07:07:59;11.70;;;8.10;;
2860;SDS011;1438;50.922;6.704;2022-10-31T07:10:26;15.63;;;9.00;;
2860;SDS011;1438;50.922;6.704;2022-10-31T07:12:54;15.20;;;9.10;;
2860;SDS011;1438;50.922;6.704;2022-10-31T07:15:21;14.37;;;8.07;;
2860;SDS011;1438;50.922;6.704;2022-10-31T07:17:47;10.63;;;7.90;;
2860;SDS011;1438;50.922;6.704;2022-10-31T07:20:12;15.53;;;7.50;;
2860;SDS011;1438;50.922;6.704;2022-10-31T07:22:38;9.93;;;6.50;;
2860;SDS011;1438;50.922;6.704;2022-10-31T07:25:04;15.00;;;8.13;;
2860;SDS011;1438;50.922;6.704;2022-10-31T07:27:35;17.40;;;6.63;;
2860;SDS011;1438;50.922;6.704;2022-10-31T07:30:01;11.87;;;8.20;;
2860;SDS011;1438;50.922;6.704;2022-10-31T07:32:36;22.03;;;10.40;;
2860;SDS011;1438;50.922;6.704;2022-10-31T07:35:06;12.23;;;8.90;;
2860;SDS011;1438;50.922;6.704;2022-10-31T07:37:33;12.90;;;10.50;;
2860;SDS011;1438;50.922;6.704;2022-10-31T07:39:58;18.33;;;11.80;;
2860;SDS011;1438;50.922;6.704;2022-10-31T07:42:24;13.37;;;10.10;;
2860;SDS011;1438;50.922;6.704;2022-10-31T07:44:50;22.20;;;10.87;;
2860;SDS011;1438;50.922;6.704;2022-10-31T07:47:15;13.13;;;8.73;;
2860;SDS011;1438;50.922;6.704;2022-10-31T07:49:41;16.67;;;10.27;;
2860;SDS011;1438;50.922;6.704;2022-10-31T07:52:06;14.90;;;9.40;;
2860;SDS011;1438;50.922;6.704;2022-10-31T07:54:32;14.80;;;9.60;;
2860;SDS011;1438;50.922;6.704;2022-10-31T07:56:57;16.03;;;10.00;;
2860;SDS011;1438;50.922;6.704;2022-10-31T07:59:23;20.63;;;10.47;;
2860;SDS011;1438;50.922;6.704;2022-10-31T08:01:50;14.70;;;9.93;;
2860;SDS011;1438;50.922;6.704;2022-10-31T08:04:16;14.70;;;10.17;;
2860;SDS011;1438;50.922;6.704;2022-10-31T08:06:41;19.37;;;10.80;;
2860;SDS011;1438;50.922;6.704;2022-10-31T08:09:07;14.40;;;9.80;;
2860;SDS011;1438;50.922;6.704;2022-10-31T08:11:33;15.07;;;9.23;;
2860;SDS011;1438;50.922;6.704;2022-10-31T08:13:58;18.93;;;9.40;;
2860;SDS011;1438;50.922;6.704;2022-10-31T08:16:24;13.87;;;8.80;;
2860;SDS011;1438;50.922;6.704;2022-10-31T08:18:49;21.03;;;9.87;;
2860;SDS011;1438;50.922;6.704;2022-10-31T08:21:15;19.67;;;10.37;;
2860;SDS011;1438;50.922;6.704;2022-10-31T08:23:40;21.10;;;10.67;;
2860;SDS011;1438;50.922;6.704;2022-10-31T08:26:06;23.43;;;11.30;;
2860;SDS011;1438;50.922;6.704;2022-10-31T08:28:32;26.60;;;11.47;;
2860;SDS011;1438;50.922;6.704;2022-10-31T08:30:57;17.77;;;10.53;;
2860;SDS011;1438;50.922;6.704;2022-10-31T08:33:23;19.20;;;10.07;;
2860;SDS011;1438;50.922;6.704;2022-10-31T08:35:49;22.90;;;9.30;;
2860;SDS011;1438;50.922;6.704;2022-10-31T08:38:15;16.40;;;9.40;;
2860;SDS011;1438;50.922;6.704;2022-10-31T08:40:41;18.67;;;10.80;;
2860;SDS011;1438;50.922;6.704;2022-10-31T08:43:11;19.33;;;10.27;;
2860;SDS011;1438;50.922;6.704;2022-10-31T08:45:38;18.47;;;10.33;;
2860;SDS011;1438;50.922;6.704;2022-10-31T08:48:05;18.53;;;10.20;;
2860;SDS011;1438;50.922;6.704;2022-10-31T08:50:34;28.30;;;13.53;;
2860;SDS011;1438;50.922;6.704;2022-10-31T08:53:09;21.80;;;11.20;;
2860;SDS011;1438;50.922;6.704;2022-10-31T08:55:38;18.30;;;11.60;;
2860;SDS011;1438;50.922;6.704;2022-10-31T08:58:05;18.47;;;11.83;;
2860;SDS011;1438;50.922;6.704;2022-10-31T09:00:32;24.07;;;12.83;;
2860;SDS011;1438;50.922;6.704;2022-10-31T09:03:00;23.37;;;13.60;;
2860;SDS011;1438;50.922;6.704;2022-10-31T09:05:27;22.63;;;12.63;;
2860;SDS011;1438;50.922;6.704;2022-10-31T09:07:57;21.83;;;12.63;;
2860;SDS011;1438;50.922;6.704;2022-10-31T09:10:23;28.73;;;12.30;;
2860;SDS011;1438;50.922;6.704;2022-10-31T09:13:00;17.60;;;10.20;;
2860;SDS011;1438;50.922;6.704;2022-10-31T09:15:29;17.83;;;9.97;;
2860;SDS011;1438;50.922;6.704;2022-10-31T09:17:55;14.50;;;10.20;;
2860;SDS011;1438;50.922;6.704;2022-10-31T09:20:21;30.13;;;10.23;;
2860;SDS011;1438;50.922;6.704;2022-10-31T09:22:47;17.40;;;10.07;;
2860;SDS011;1438;50.922;6.704;2022-10-31T09:25:13;16.87;;;9.30;;
2860;SDS011;1438;50.922;6.704;2022-10-31T09:27:38;16.57;;;8.30;;
2860;SDS011;1438;50.922;6.704;2022-10-31T09:30:04;16.80;;;7.80;;
2860;SDS011;1438;50.922;6.704;2022-10-31T09:32:30;9.93;;;8.53;;
2860;SDS011;1438;50.922;6.704;2022-10-31T09:34:56;16.80;;;9.97;;
2860;SDS011;1438;50.922;6.704;2022-10-31T09:37:21;17.93;;;10.40;;
2860;SDS011;1438;50.922;6.704;2022-10-31T09:39:47;20.23;;;11.77;;
2860;SDS011;1438;50.922;6.704;2022-10-31T09:53:23;18.17;;;11.63;;
2860;SDS011;1438;50.922;6.704;2022-10-31T09:55:58;21.13;;;10.83;;
2860;SDS011;1438;50.922;6.704;2022-10-31T09:58:28;18.27;;;10.00;;
2860;SDS011;1438;50.922;6.704;2022-10-31T10:00:57;13.40;;;10.17;;
2860;SDS011;1438;50.922;6.704;2022-10-31T10:08:44;14.57;;;9.20;;
2860;SDS011;1438;50.922;6.704;2022-10-31T10:13:55;17.37;;;9.00;;
2860;SDS011;1438;50.922;6.704;2022-10-31T10:22:02;12.77;;;10.00;;
2860;SDS011;1438;50.922;6.704;2022-10-31T10:30:20;15.90;;;8.60;;
2860;SDS011;1438;50.922;6.704;2022-10-31T10:32:51;15.53;;;8.90;;
2860;SDS011;1438;50.922;6.704;2022-10-31T10:37:57;11.37;;;7.43;;
2860;SDS011;1438;50.922;6.704;2022-10-31T10:40:43;17.40;;;8.57;;
2860;SDS011;1438;50.922;6.704;2022-10-31T10:43:21;17.93;;;8.47;;
2860;SDS011;1438;50.922;6.704;2022-10-31T10:49:04;16.80;;;8.10;;
2860;SDS011;1438;50.922;6.704;2022-10-31T10:51:46;13.83;;;8.47;;
2860;SDS011;1438;50.922;6.704;2022-10-31T10:59:43;15.70;;;8.80;;
2860;SDS011;1438;50.922;6.704;2022-10-31T11:02:19;13.40;;;7.73;;
2860;SDS011;1438;50.922;6.704;2022-10-31T11:04:50;15.57;;;9.03;;
2860;SDS011;1438;50.922;6.704;2022-10-31T11:07:17;13.70;;;8.00;;
2860;SDS011;1438;50.922;6.704;2022-10-31T11:09:43;17.20;;;8.33;;
2860;SDS011;1438;50.922;6.704;2022-10-31T11:14:50;19.70;;;8.27;;
2860;SDS011;1438;50.922;6.704;2022-10-31T11:17:22;13.47;;;6.00;;
2860;SDS011;1438;50.922;6.704;2022-10-31T11:20:03;13.33;;;6.33;;
2860;SDS011;1438;50.922;6.704;2022-10-31T11:22:29;14.03;;;6.30;;
2860;SDS011;1438;50.922;6.704;2022-10-31T11:24:55;7.43;;;4.50;;
2860;SDS011;1438;50.922;6.704;2022-10-31T11:27:21;14.83;;;5.83;;
2860;SDS011;1438;50.922;6.704;2022-10-31T11:29:51;14.50;;;5.60;;
2860;SDS011;1438;50.922;6.704;2022-10-31T11:32:21;12.70;;;5.30;;
2860;SDS011;1438;50.922;6.704;2022-10-31T11:34:56;7.43;;;5.50;;
2860;SDS011;1438;50.922;6.704;2022-10-31T11:37:26;6.63;;;4.60;;
2860;SDS011;1438;50.922;6.704;2022-10-31T11:39:55;12.80;;;5.83;;
2860;SDS011;1438;50.922;6.704;2022-10-31T11:42:27;8.87;;;4.33;;
2860;SDS011;1438;50.922;6.704;2022-10-31T11:45:05;7.27;;;5.37;;
2860;SDS011;1438;50.922;6.704;2022-10-31T11:48:01;11.30;;;5.90;;
2860;SDS011;1438;50.922;6.704;2022-10-31T11:50:39;7.60;;;6.00;;
2860;SDS011;1438;50.922;6.704;2022-10-31T11:53:12;10.77;;;5.40;;
2860;SDS011;1438;50.922;6.704;2022-10-31T11:55:46;11.97;;;6.03;;
2860;SDS011;1438;50.922;6.704;2022-10-31T11:58:25;9.17;;;6.20;;
2860;SDS011;1438;50.922;6.704;2022-10-31T12:00:53;13.77;;;5.90;;
2860;SDS011;1438;50.922;6.704;2022-10-31T12:06:02;12.50;;;6.80;;
2860;SDS011;1438;50.922;6.704;2022-10-31T12:08:34;11.17;;;6.87;;
2860;SDS011;1438;50.922;6.704;2022-10-31T12:13:48;12.50;;;7.27;;
2860;SDS011;1438;50.922;6.704;2022-10-31T12:17:13;20.20;;;6.57;;
2860;SDS011;1438;50.922;6.704;2022-10-31T12:22:57;14.03;;;6.17;;
2860;SDS011;1438;50.922;6.704;2022-10-31T12:28:47;15.30;;;6.47;;
2860;SDS011;1438;50.922;6.704;2022-10-31T12:37:47;10.77;;;6.73;;
2860;SDS011;1438;50.922;6.704;2022-10-31T12:46:02;13.67;;;6.27;;
2860;SDS011;1438;50.922;6.704;2022-10-31T12:51:33;12.97;;;6.33;;
2860;SDS011;1438;50.922;6.704;2022-10-31T12:54:15;11.57;;;6.97;;
2860;SDS011;1438;50.922;6.704;2022-10-31T12:59:37;12.33;;;5.47;;
2860;SDS011;1438;50.922;6.704;2022-10-31T13:04:38;13.80;;;5.20;;
2860;SDS011;1438;50.922;6.704;2022-10-31T13:07:15;8.20;;;5.13;;
2860;SDS011;1438;50.922;6.704;2022-10-31T13:10:02;9.43;;;5.60;;
2860;SDS011;1438;50.922;6.704;2022-10-31T13:12:32;11.87;;;5.60;;
2860;SDS011;1438;50.922;6.704;2022-10-31T13:15:01;10.13;;;5.50;;
2860;SDS011;1438;50.922;6.704;2022-10-31T13:17:38;13.70;;;5.73;;
2860;SDS011;1438;50.922;6.704;2022-10-31T13:22:56;14.33;;;5.33;;
2860;SDS011;1438;50.922;6.704;2022-10-31T13:25:43;9.63;;;6.07;;
2860;SDS011;1438;50.922;6.704;2022-10-31T13:28:19;8.77;;;4.40;;
2860;SDS011;1438;50.922;6.704;2022-10-31T13:31:02;8.50;;;4.33;;
2860;SDS011;1438;50.922;6.704;2022-10-31T13:33:32;8.67;;;4.13;;
2860;SDS011;1438;50.922;6.704;2022-10-31T13:44:14;13.83;;;4.57;;
2860;SDS011;1438;50.922;6.704;2022-10-31T13:46:43;8.87;;;4.50;;
2860;SDS011;1438;50.922;6.704;2022-10-31T13:52:04;8.70;;;5.30;;
2860;SDS011;1438;50.922;6.704;2022-10-31T13:54:34;6.80;;;4.70;;
2860;SDS011;1438;50.922;6.704;2022-10-31T13:57:00;14.20;;;5.13;;
2860;SDS011;1438;50.922;6.704;2022-10-31T13:59:27;13.63;;;5.30;;
2860;SDS011;1438;50.922;6.704;2022-10-31T14:02:00;8.83;;;5.10;;
2860;SDS011;1438;50.922;6.704;2022-10-31T14:04:37;12.07;;;4.67;;
2860;SDS011;1438;50.922;6.704;2022-10-31T14:07:10;10.90;;;4.53;;
2860;SDS011;1438;50.922;6.704;2022-10-31T14:09:39;7.30;;;4.43;;
2860;SDS011;1438;50.922;6.704;2022-10-31T14:13:03;9.93;;;4.73;;
2860;SDS011;1438;50.922;6.704;2022-10-31T14:15:17;12.60;;;4.03;;
2860;SDS011;1438;50.922;6.704;2022-10-31T14:17:46;9.23;;;5.30;;
2860;SDS011;1438;50.922;6.704;2022-10-31T14:22:41;13.77;;;5.60;;
2860;SDS011;1438;50.922;6.704;2022-10-31T14:27:59;9.13;;;4.60;;
2860;SDS011;1438;50.922;6.704;2022-10-31T14:30:27;9.43;;;4.23;;
2860;SDS011;1438;50.922;6.704;2022-10-31T14:32:57;6.30;;;4.57;;
2860;SDS011;1438;50.922;6.704;2022-10-31T14:35:27;8.17;;;4.27;;
2860;SDS011;1438;50.922;6.704;2022-10-31T14:38:05;17.87;;;5.60;;
2860;SDS011;1438;50.922;6.704;2022-10-31T14:46:16;7.10;;;4.23;;
2860;SDS011;1438;50.922;6.704;2022-10-31T14:49:10;8.27;;;4.80;;
2860;SDS011;1438;50.922;6.704;2022-10-31T14:51:56;10.83;;;5.10;;
2860;SDS011;1438;50.922;6.704;2022-10-31T14:57:05;11.23;;;4.87;;
2860;SDS011;1438;50.922;6.704;2022-10-31T14:59:33;11.10;;;4.90;;
2860;SDS011;1438;50.922;6.704;2022-10-31T15:02:11;10.33;;;4.43;;
2860;SDS011;1438;50.922;6.704;2022-10-31T15:04:48;9.63;;;4.40;;
2860;SDS011;1438;50.922;6.704;2022-10-31T15:07:18;9.47;;;4.40;;
2860;SDS011;1438;50.922;6.704;2022-10-31T15:09:57;9.10;;;3.90;;
2860;SDS011;1438;50.922;6.704;2022-10-31T15:12:43;9.83;;;4.80;;
2860;SDS011;1438;50.922;6.704;2022-10-31T15:15:13;11.07;;;4.00;;
2860;SDS011;1438;50.922;6.704;2022-10-31T15:17:44;10.07;;;4.67;;
2860;SDS011;1438;50.922;6.704;2022-10-31T15:20:19;13.33;;;4.40;;
2860;SDS011;1438;50.922;6.704;2022-10-31T15:22:48;12.20;;;3.50;;
2860;SDS011;1438;50.922;6.704;2022-10-31T15:25:18;7.37;;;4.50;;
2860;SDS011;1438;50.922;6.704;2022-10-31T15:27:45;10.53;;;4.00;;
2860;SDS011;1438;50.922;6.704;2022-10-31T15:32:44;8.97;;;4.03;;
2860;SDS011;1438;50.922;6.704;2022-10-31T15:35:14;10.40;;;4.73;;
2860;SDS011;1438;50.922;6.704;2022-10-31T15:37:46;7.20;;;3.80;;
2860;SDS011;1438;50.922;6.704;2022-10-31T15:40:14;7.03;;;4.10;;
2860;SDS011;1438;50.922;6.704;2022-10-31T15:42:41;11.30;;;4.80;;
2860;SDS011;1438;50.922;6.704;2022-10-31T15:47:37;6.60;;;4.67;;
2860;SDS011;1438;50.922;6.704;2022-10-31T15:50:04;7.43;;;3.70;;
2860;SDS011;1438;50.922;6.704;2022-10-31T15:52:43;7.30;;;4.07;;
2860;SDS011;1438;50.922;6.704;2022-10-31T15:57:40;10.00;;;4.63;;
2860;SDS011;1438;50.922;6.704;2022-10-31T16:00:22;13.93;;;4.60;;
2860;SDS011;1438;50.922;6.704;2022-10-31T16:02:48;6.20;;;4.10;;
2860;SDS011;1438;50.922;6.704;2022-10-31T16:05:15;12.50;;;4.23;;
2860;SDS011;1438;50.922;6.704;2022-10-31T16:07:48;9.47;;;4.50;;
2860;SDS011;1438;50.922;6.704;2022-10-31T16:10:22;12.80;;;5.10;;
2860;SDS011;1438;50.922;6.704;2022-10-31T16:12:50;7.57;;;4.33;;
2860;SDS011;1438;50.922;6.704;2022-10-31T16:15:17;7.10;;;4.40;;
2860;SDS011;1438;50.922;6.704;2022-10-31T16:17:46;8.70;;;4.20;;
2860;SDS011;1438;50.922;6.704;2022-10-31T16:20:16;11.63;;;5.27;;
2860;SDS011;1438;50.922;6.704;2022-10-31T16:22:47;8.70;;;4.87;;
2860;SDS011;1438;50.922;6.704;2022-10-31T16:25:16;6.60;;;4.10;;
2860;SDS011;1438;50.922;6.704;2022-10-31T16:27:51;6.80;;;3.63;;
2860;SDS011;1438;50.922;6.704;2022-10-31T16:32:55;8.60;;;4.60;;
2860;SDS011;1438;50.922;6.704;2022-10-31T16:37:53;16.03;;;4.80;;
2860;SDS011;1438;50.922;6.704;2022-10-31T16:40:19;12.80;;;4.80;;
2860;SDS011;1438;50.922;6.704;2022-10-31T16:42:45;9.87;;;4.47;;
2860;SDS011;1438;50.922;6.704;2022-10-31T16:45:15;11.23;;;4.40;;
2860;SDS011;1438;50.922;6.704;2022-10-31T16:47:46;8.57;;;4.20;;
2860;SDS011;1438;50.922;6.704;2022-10-31T16:52:43;14.10;;;5.40;;
2860;SDS011;1438;50.922;6.704;2022-10-31T16:55:11;9.50;;;4.73;;
2860;SDS011;1438;50.922;6.704;2022-10-31T16:57:38;11.70;;;4.90;;
2860;SDS011;1438;50.922;6.704;2022-10-31T17:00:05;8.13;;;4.90;;
2860;SDS011;1438;50.922;6.704;2022-10-31T17:02:31;12.73;;;4.90;;
2860;SDS011;1438;50.922;6.704;2022-10-31T17:04:58;15.33;;;4.83;;
2860;SDS011;1438;50.922;6.704;2022-10-31T17:07:23;11.30;;;4.60;;
2860;SDS011;1438;50.922;6.704;2022-10-31T17:09:49;7.50;;;4.37;;
2860;SDS011;1438;50.922;6.704;2022-10-31T17:12:16;12.40;;;5.13;;
2860;SDS011;1438;50.922;6.704;2022-10-31T17:14:47;9.77;;;4.50;;
2860;SDS011;1438;50.922;6.704;2022-10-31T17:17:15;10.03;;;4.40;;
2860;SDS011;1438;50.922;6.704;2022-10-31T17:19:40;10.80;;;3.50;;
2860;SDS011;1438;50.922;6.704;2022-10-31T17:22:07;8.53;;;3.70;;
2860;SDS011;1438;50.922;6.704;2022-10-31T17:24:35;14.23;;;4.63;;
2860;SDS011;1438;50.922;6.704;2022-10-31T17:27:01;14.23;;;4.87;;
2860;SDS011;1438;50.922;6.704;2022-10-31T17:29:26;8.80;;;4.10;;
2860;SDS011;1438;50.922;6.704;2022-10-31T17:31:52;8.57;;;4.30;;
2860;SDS011;1438;50.922;6.704;2022-10-31T17:34:18;6.53;;;3.43;;
2860;SDS011;1438;50.922;6.704;2022-10-31T17:36:48;9.37;;;3.43;;
2860;SDS011;1438;50.922;6.704;2022-10-31T17:39:15;6.00;;;4.13;;
2860;SDS011;1438;50.922;6.704;2022-10-31T17:41:41;9.27;;;4.30;;
2860;SDS011;1438;50.922;6.704;2022-10-31T17:44:08;7.73;;;4.83;;
2860;SDS011;1438;50.922;6.704;2022-10-31T17:46:34;17.70;;;5.00;;
2860;SDS011;1438;50.922;6.704;2022-10-31T17:49:00;8.90;;;4.50;;
2860;SDS011;1438;50.922;6.704;2022-10-31T17:51:27;12.90;;;4.50;;
2860;SDS011;1438;50.922;6.704;2022-10-31T17:53:52;14.30;;;7.13;;
2860;SDS011;1438;50.922;6.704;2022-10-31T17:56:18;13.23;;;5.97;;